sensor_id;sensor_type;location;lat;lon;timestamp;temperature;humidity
51175;DHT22;37240;50.104;20.010;2023-05-10T00:03:29;11.00;82.90
51175;DHT22;37240;50.104;20.010;2023-05-10T00:08:29;11.00;83.40
51175;DHT22;37240;50.104;20.010;2023-05-10T00:13:31;10.90;84.00
51175;DHT22;37240;50.104;20.010;2023-05-10T00:18:31;11.00;83.40
51175;DHT22;37240;50.104;20.010;2023-05-10T00:23:32;11.10;83.50
51175;DHT22;37240;50.104;20.010;2023-05-10T00:28:33;11.00;84.00
51175;DHT22;37240;50.104;20.010;2023-05-10T00:33:33;10.80;85.10
51175;DHT22;37240;50.104;20.010;2023-05-10T00:38:34;10.70;85.70
51175;DHT22;37240;50.104;20.010;2023-05-10T00:43:34;10.60;86.30
51175;DHT22;37240;50.104;20.010;2023-05-10T00:48:35;10.50;87.00
51175;DHT22;37240;50.104;20.010;2023-05-10T00:53:35;10.40;87.50
51175;DHT22;37240;50.104;20.010;2023-05-10T00:58:36;10.50;87.50
51175;DHT22;37240;50.104;20.010;2023-05-10T01:03:37;10.50;87.80
51175;DHT22;37240;50.104;20.010;2023-05-10T01:08:37;10.40;88.60
51175;DHT22;37240;50.104;20.010;2023-05-10T01:13:41;10.30;89.40
51175;DHT22;37240;50.104;20.010;2023-05-10T01:18:43;10.30;89.80
51175;DHT22;37240;50.104;20.010;2023-05-10T01:24:10;10.20;89.90
51175;DHT22;37240;50.104;20.010;2023-05-10T01:29:22;10.30;90.20
51175;DHT22;37240;50.104;20.010;2023-05-10T01:34:35;10.10;90.40
51175;DHT22;37240;50.104;20.010;2023-05-10T01:50:53;9.80;91.70
51175;DHT22;37240;50.104;20.010;2023-05-10T01:55:55;9.70;92.20
51175;DHT22;37240;50.104;20.010;2023-05-10T02:00:59;9.80;92.40
51175;DHT22;37240;50.104;20.010;2023-05-10T02:06:00;9.80;92.10
51175;DHT22;37240;50.104;20.010;2023-05-10T02:11:01;9.80;92.30
51175;DHT22;37240;50.104;20.010;2023-05-10T02:16:03;9.70;92.70
51175;DHT22;37240;50.104;20.010;2023-05-10T02:21:05;9.70;92.80
51175;DHT22;37240;50.104;20.010;2023-05-10T02:26:06;9.50;93.20
51175;DHT22;37240;50.104;20.010;2023-05-10T02:31:08;9.50;93.40
51175;DHT22;37240;50.104;20.010;2023-05-10T02:36:10;9.50;93.60
51175;DHT22;37240;50.104;20.010;2023-05-10T02:41:13;9.50;93.70
51175;DHT22;37240;50.104;20.010;2023-05-10T02:46:14;9.50;93.90
51175;DHT22;37240;50.104;20.010;2023-05-10T02:51:16;9.40;94.10
51175;DHT22;37240;50.104;20.010;2023-05-10T02:56:40;9.30;94.50
51175;DHT22;37240;50.104;20.010;2023-05-10T03:01:42;9.20;94.70
51175;DHT22;37240;50.104;20.010;2023-05-10T03:06:43;9.20;94.80
51175;DHT22;37240;50.104;20.010;2023-05-10T03:17:16;9.40;94.60
51175;DHT22;37240;50.104;20.010;2023-05-10T03:22:25;9.70;94.10
51175;DHT22;37240;50.104;20.010;2023-05-10T03:27:27;10.20;93.20
51175;DHT22;37240;50.104;20.010;2023-05-10T03:32:29;10.90;91.80
51175;DHT22;37240;50.104;20.010;2023-05-10T03:37:29;11.40;90.30
51175;DHT22;37240;50.104;20.010;2023-05-10T03:42:30;11.80;88.30
51175;DHT22;37240;50.104;20.010;2023-05-10T03:47:30;12.10;86.30
51175;DHT22;37240;50.104;20.010;2023-05-10T03:52:31;12.30;84.70
51175;DHT22;37240;50.104;20.010;2023-05-10T03:57:32;13.00;81.70
51175;DHT22;37240;50.104;20.010;2023-05-10T04:02:32;13.80;78.20
51175;DHT22;37240;50.104;20.010;2023-05-10T04:07:33;14.50;73.10
51175;DHT22;37240;50.104;20.010;2023-05-10T04:12:33;15.10;69.60
51175;DHT22;37240;50.104;20.010;2023-05-10T04:17:34;15.50;66.70
51175;DHT22;37240;50.104;20.010;2023-05-10T04:22:34;15.80;65.90
51175;DHT22;37240;50.104;20.010;2023-05-10T04:27:35;15.90;65.10
51175;DHT22;37240;50.104;20.010;2023-05-10T04:32:35;16.00;63.70
51175;DHT22;37240;50.104;20.010;2023-05-10T04:37:36;16.00;64.50
51175;DHT22;37240;50.104;20.010;2023-05-10T04:42:37;16.00;63.40
51175;DHT22;37240;50.104;20.010;2023-05-10T04:47:39;16.20;63.30
51175;DHT22;37240;50.104;20.010;2023-05-10T04:52:40;16.10;62.50
51175;DHT22;37240;50.104;20.010;2023-05-10T04:57:41;15.80;64.70
51175;DHT22;37240;50.104;20.010;2023-05-10T05:02:44;15.80;64.90
51175;DHT22;37240;50.104;20.010;2023-05-10T05:07:45;16.10;64.60
51175;DHT22;37240;50.104;20.010;2023-05-10T05:12:46;16.20;62.80
51175;DHT22;37240;50.104;20.010;2023-05-10T05:17:46;16.70;61.00
51175;DHT22;37240;50.104;20.010;2023-05-10T05:22:47;16.90;60.90
51175;DHT22;37240;50.104;20.010;2023-05-10T05:27:47;17.20;59.70
51175;DHT22;37240;50.104;20.010;2023-05-10T05:32:48;17.30;58.20
51175;DHT22;37240;50.104;20.010;2023-05-10T05:37:48;17.50;57.90
51175;DHT22;37240;50.104;20.010;2023-05-10T05:42:49;17.30;58.90
51175;DHT22;37240;50.104;20.010;2023-05-10T05:47:50;17.80;58.50
51175;DHT22;37240;50.104;20.010;2023-05-10T05:52:50;18.10;57.40
51175;DHT22;37240;50.104;20.010;2023-05-10T05:57:51;18.40;56.80
51175;DHT22;37240;50.104;20.010;2023-05-10T06:02:51;18.90;55.70
51175;DHT22;37240;50.104;20.010;2023-05-10T06:07:52;19.10;54.70
51175;DHT22;37240;50.104;20.010;2023-05-10T06:12:52;19.10;55.20
51175;DHT22;37240;50.104;20.010;2023-05-10T06:17:53;19.30;54.80
51175;DHT22;37240;50.104;20.010;2023-05-10T06:22:53;19.60;54.20
51175;DHT22;37240;50.104;20.010;2023-05-10T06:27:54;19.90;52.60
51175;DHT22;37240;50.104;20.010;2023-05-10T06:32:55;20.30;52.90
51175;DHT22;37240;50.104;20.010;2023-05-10T06:37:55;20.60;51.30
51175;DHT22;37240;50.104;20.010;2023-05-10T06:42:56;20.90;50.40
51175;DHT22;37240;50.104;20.010;2023-05-10T06:47:56;20.80;50.10
51175;DHT22;37240;50.104;20.010;2023-05-10T06:52:57;20.80;50.10
51175;DHT22;37240;50.104;20.010;2023-05-10T06:57:57;20.90;49.70
51175;DHT22;37240;50.104;20.010;2023-05-10T07:02:58;21.10;48.70
51175;DHT22;37240;50.104;20.010;2023-05-10T07:07:58;21.00;49.30
51175;DHT22;37240;50.104;20.010;2023-05-10T07:12:59;21.30;48.20
51175;DHT22;37240;50.104;20.010;2023-05-10T07:17:59;21.70;48.20
51175;DHT22;37240;50.104;20.010;2023-05-10T07:23:00;21.80;47.50
51175;DHT22;37240;50.104;20.010;2023-05-10T07:28:00;21.70;48.10
51175;DHT22;37240;50.104;20.010;2023-05-10T07:33:01;21.60;48.50
51175;DHT22;37240;50.104;20.010;2023-05-10T07:38:02;22.10;47.80
51175;DHT22;37240;50.104;20.010;2023-05-10T07:43:02;22.30;47.30
51175;DHT22;37240;50.104;20.010;2023-05-10T07:48:03;22.60;47.00
51175;DHT22;37240;50.104;20.010;2023-05-10T07:53:03;22.90;47.10
51175;DHT22;37240;50.104;20.010;2023-05-10T07:58:04;22.90;46.70
51175;DHT22;37240;50.104;20.010;2023-05-10T08:03:06;22.90;46.50
51175;DHT22;37240;50.104;20.010;2023-05-10T08:08:06;23.10;45.50
51175;DHT22;37240;50.104;20.010;2023-05-10T08:13:07;23.40;44.30
51175;DHT22;37240;50.104;20.010;2023-05-10T08:18:07;23.40;44.10
51175;DHT22;37240;50.104;20.010;2023-05-10T08:23:08;23.40;43.80
51175;DHT22;37240;50.104;20.010;2023-05-10T08:28:08;23.40;43.30
51175;DHT22;37240;50.104;20.010;2023-05-10T08:33:09;23.40;41.50
51175;DHT22;37240;50.104;20.010;2023-05-10T08:38:09;23.40;42.40
51175;DHT22;37240;50.104;20.010;2023-05-10T08:43:12;23.80;41.10
51175;DHT22;37240;50.104;20.010;2023-05-10T08:48:14;23.50;40.70
51175;DHT22;37240;50.104;20.010;2023-05-10T08:53:16;23.30;41.60
51175;DHT22;37240;50.104;20.010;2023-05-10T08:58:17;23.20;39.30
51175;DHT22;37240;50.104;20.010;2023-05-10T09:03:18;23.20;40.70
51175;DHT22;37240;50.104;20.010;2023-05-10T09:08:18;23.10;41.00
51175;DHT22;37240;50.104;20.010;2023-05-10T09:13:21;22.90;41.10
51175;DHT22;37240;50.104;20.010;2023-05-10T09:18:22;22.30;41.50
51175;DHT22;37240;50.104;20.010;2023-05-10T09:23:22;21.90;40.40
51175;DHT22;37240;50.104;20.010;2023-05-10T09:28:23;21.80;41.30
51175;DHT22;37240;50.104;20.010;2023-05-10T09:33:24;21.40;42.00
51175;DHT22;37240;50.104;20.010;2023-05-10T09:38:25;21.20;41.90
51175;DHT22;37240;50.104;20.010;2023-05-10T09:43:25;21.10;42.50
51175;DHT22;37240;50.104;20.010;2023-05-10T09:48:26;20.80;43.00
51175;DHT22;37240;50.104;20.010;2023-05-10T09:53:26;20.40;43.20
51175;DHT22;37240;50.104;20.010;2023-05-10T09:58:27;20.40;43.40
51175;DHT22;37240;50.104;20.010;2023-05-10T10:03:28;20.10;43.90
51175;DHT22;37240;50.104;20.010;2023-05-10T10:08:29;20.00;44.80
51175;DHT22;37240;50.104;20.010;2023-05-10T10:13:29;20.20;44.70
51175;DHT22;37240;50.104;20.010;2023-05-10T10:18:30;20.30;42.90
51175;DHT22;37240;50.104;20.010;2023-05-10T10:23:31;20.40;42.70
51175;DHT22;37240;50.104;20.010;2023-05-10T10:28:56;20.20;42.50
51175;DHT22;37240;50.104;20.010;2023-05-10T10:34:10;20.10;41.50
51175;DHT22;37240;50.104;20.010;2023-05-10T10:39:18;20.20;42.50
51175;DHT22;37240;50.104;20.010;2023-05-10T10:49:23;20.20;42.70
51175;DHT22;37240;50.104;20.010;2023-05-10T10:54:28;20.30;42.00
51175;DHT22;37240;50.104;20.010;2023-05-10T10:59:28;20.40;43.10
51175;DHT22;37240;50.104;20.010;2023-05-10T11:04:41;20.30;42.80
51175;DHT22;37240;50.104;20.010;2023-05-10T11:09:42;20.50;43.00
51175;DHT22;37240;50.104;20.010;2023-05-10T11:14:43;20.40;41.90
51175;DHT22;37240;50.104;20.010;2023-05-10T11:20:06;20.30;42.20
51175;DHT22;37240;50.104;20.010;2023-05-10T11:25:06;20.20;41.70
51175;DHT22;37240;50.104;20.010;2023-05-10T11:30:09;20.40;40.60
51175;DHT22;37240;50.104;20.010;2023-05-10T11:35:11;20.40;42.30
51175;DHT22;37240;50.104;20.010;2023-05-10T11:40:12;20.30;41.40
51175;DHT22;37240;50.104;20.010;2023-05-10T11:45:12;20.30;40.90
51175;DHT22;37240;50.104;20.010;2023-05-10T11:50:13;20.20;42.00
51175;DHT22;37240;50.104;20.010;2023-05-10T11:55:14;20.10;43.20
51175;DHT22;37240;50.104;20.010;2023-05-10T12:00:14;20.00;43.00
51175;DHT22;37240;50.104;20.010;2023-05-10T12:05:15;20.00;44.20
51175;DHT22;37240;50.104;20.010;2023-05-10T12:10:25;20.20;43.40
51175;DHT22;37240;50.104;20.010;2023-05-10T12:15:26;20.20;42.10
51175;DHT22;37240;50.104;20.010;2023-05-10T12:20:27;20.00;42.90
51175;DHT22;37240;50.104;20.010;2023-05-10T12:25:36;19.90;41.90
51175;DHT22;37240;50.104;20.010;2023-05-10T12:30:37;20.10;42.40
51175;DHT22;37240;50.104;20.010;2023-05-10T12:40:49;20.10;43.70
51175;DHT22;37240;50.104;20.010;2023-05-10T12:45:50;20.00;43.80
51175;DHT22;37240;50.104;20.010;2023-05-10T12:50:50;19.90;44.30
51175;DHT22;37240;50.104;20.010;2023-05-10T12:55:51;20.00;44.50
51175;DHT22;37240;50.104;20.010;2023-05-10T13:00:52;20.00;43.60
51175;DHT22;37240;50.104;20.010;2023-05-10T13:05:53;20.00;43.50
51175;DHT22;37240;50.104;20.010;2023-05-10T13:10:53;20.00;44.00
51175;DHT22;37240;50.104;20.010;2023-05-10T13:15:54;20.20;42.70
51175;DHT22;37240;50.104;20.010;2023-05-10T13:20:55;20.10;42.10
51175;DHT22;37240;50.104;20.010;2023-05-10T13:25:55;20.00;42.30
51175;DHT22;37240;50.104;20.010;2023-05-10T13:30:56;20.10;42.70
51175;DHT22;37240;50.104;20.010;2023-05-10T13:35:57;20.20;43.10
51175;DHT22;37240;50.104;20.010;2023-05-10T13:40:57;20.00;43.10
51175;DHT22;37240;50.104;20.010;2023-05-10T13:45:58;19.90;43.90
51175;DHT22;37240;50.104;20.010;2023-05-10T13:50:58;19.90;43.50
51175;DHT22;37240;50.104;20.010;2023-05-10T13:55:59;19.80;44.00
51175;DHT22;37240;50.104;20.010;2023-05-10T14:01:00;19.80;43.40
51175;DHT22;37240;50.104;20.010;2023-05-10T14:06:00;19.80;43.50
51175;DHT22;37240;50.104;20.010;2023-05-10T14:11:01;19.90;43.80
51175;DHT22;37240;50.104;20.010;2023-05-10T14:16:02;20.00;44.40
51175;DHT22;37240;50.104;20.010;2023-05-10T14:21:03;20.00;43.10
51175;DHT22;37240;50.104;20.010;2023-05-10T14:26:04;20.00;43.30
51175;DHT22;37240;50.104;20.010;2023-05-10T14:31:04;19.90;43.20
51175;DHT22;37240;50.104;20.010;2023-05-10T14:36:05;19.90;43.60
51175;DHT22;37240;50.104;20.010;2023-05-10T14:41:06;20.00;44.20
51175;DHT22;37240;50.104;20.010;2023-05-10T14:46:07;19.90;44.10
51175;DHT22;37240;50.104;20.010;2023-05-10T14:51:08;19.90;44.30
51175;DHT22;37240;50.104;20.010;2023-05-10T14:56:08;19.80;44.40
51175;DHT22;37240;50.104;20.010;2023-05-10T15:01:09;19.70;43.60
51175;DHT22;37240;50.104;20.010;2023-05-10T15:06:10;19.80;44.70
51175;DHT22;37240;50.104;20.010;2023-05-10T15:11:10;19.80;44.20
51175;DHT22;37240;50.104;20.010;2023-05-10T15:16:11;19.90;43.90
51175;DHT22;37240;50.104;20.010;2023-05-10T15:21:12;19.80;43.90
51175;DHT22;37240;50.104;20.010;2023-05-10T15:26:12;19.80;44.30
51175;DHT22;37240;50.104;20.010;2023-05-10T15:31:13;19.90;44.90
51175;DHT22;37240;50.104;20.010;2023-05-10T15:36:13;19.90;44.40
51175;DHT22;37240;50.104;20.010;2023-05-10T15:41:14;19.90;45.10
51175;DHT22;37240;50.104;20.010;2023-05-10T15:46:15;19.80;44.80
51175;DHT22;37240;50.104;20.010;2023-05-10T15:51:15;19.90;44.40
51175;DHT22;37240;50.104;20.010;2023-05-10T15:56:16;19.90;45.10
51175;DHT22;37240;50.104;20.010;2023-05-10T16:01:16;19.70;45.10
51175;DHT22;37240;50.104;20.010;2023-05-10T16:06:17;19.60;45.00
51175;DHT22;37240;50.104;20.010;2023-05-10T16:11:17;19.60;45.50
51175;DHT22;37240;50.104;20.010;2023-05-10T16:16:18;19.60;46.30
51175;DHT22;37240;50.104;20.010;2023-05-10T16:21:19;19.60;45.40
51175;DHT22;37240;50.104;20.010;2023-05-10T16:26:20;19.60;45.60
51175;DHT22;37240;50.104;20.010;2023-05-10T16:31:20;19.50;45.90
51175;DHT22;37240;50.104;20.010;2023-05-10T16:36:21;19.40;45.10
51175;DHT22;37240;50.104;20.010;2023-05-10T16:41:22;19.40;45.50
51175;DHT22;37240;50.104;20.010;2023-05-10T16:46:22;19.40;45.70
51175;DHT22;37240;50.104;20.010;2023-05-10T16:51:23;19.40;46.00
51175;DHT22;37240;50.104;20.010;2023-05-10T16:56:24;19.40;46.00
51175;DHT22;37240;50.104;20.010;2023-05-10T17:01:25;19.40;46.30
51175;DHT22;37240;50.104;20.010;2023-05-10T17:06:26;19.30;46.10
51175;DHT22;37240;50.104;20.010;2023-05-10T17:11:26;19.20;46.30
51175;DHT22;37240;50.104;20.010;2023-05-10T17:16:28;19.10;47.20
51175;DHT22;37240;50.104;20.010;2023-05-10T17:21:29;19.10;48.40
51175;DHT22;37240;50.104;20.010;2023-05-10T17:26:29;19.00;49.10
51175;DHT22;37240;50.104;20.010;2023-05-10T17:31:30;18.90;49.40
51175;DHT22;37240;50.104;20.010;2023-05-10T17:36:31;18.70;49.60
51175;DHT22;37240;50.104;20.010;2023-05-10T17:41:31;18.70;49.80
51175;DHT22;37240;50.104;20.010;2023-05-10T17:46:32;18.70;50.10
51175;DHT22;37240;50.104;20.010;2023-05-10T17:51:33;18.60;50.90
51175;DHT22;37240;50.104;20.010;2023-05-10T17:56:33;18.40;50.10
51175;DHT22;37240;50.104;20.010;2023-05-10T18:01:34;18.20;50.00
51175;DHT22;37240;50.104;20.010;2023-05-10T18:06:35;18.00;50.20
51175;DHT22;37240;50.104;20.010;2023-05-10T18:11:36;17.80;50.80
51175;DHT22;37240;50.104;20.010;2023-05-10T18:16:36;17.60;51.00
51175;DHT22;37240;50.104;20.010;2023-05-10T18:21:37;17.50;51.40
51175;DHT22;37240;50.104;20.010;2023-05-10T18:26:37;17.40;51.60
51175;DHT22;37240;50.104;20.010;2023-05-10T18:31:38;17.20;51.80
51175;DHT22;37240;50.104;20.010;2023-05-10T18:36:39;17.10;51.80
51175;DHT22;37240;50.104;20.010;2023-05-10T18:41:40;17.00;51.90
51175;DHT22;37240;50.104;20.010;2023-05-10T18:46:40;16.90;51.90
51175;DHT22;37240;50.104;20.010;2023-05-10T18:51:41;16.90;52.00
51175;DHT22;37240;50.104;20.010;2023-05-10T18:56:42;16.80;51.90
51175;DHT22;37240;50.104;20.010;2023-05-10T19:01:43;16.50;52.10
51175;DHT22;37240;50.104;20.010;2023-05-10T19:06:43;16.40;52.10
51175;DHT22;37240;50.104;20.010;2023-05-10T19:11:45;16.40;52.40
51175;DHT22;37240;50.104;20.010;2023-05-10T19:16:46;16.30;52.50
51175;DHT22;37240;50.104;20.010;2023-05-10T19:21:47;16.30;52.80
51175;DHT22;37240;50.104;20.010;2023-05-10T19:26:47;16.20;52.90
51175;DHT22;37240;50.104;20.010;2023-05-10T19:31:48;16.10;53.30
51175;DHT22;37240;50.104;20.010;2023-05-10T19:36:49;16.00;53.30
51175;DHT22;37240;50.104;20.010;2023-05-10T19:41:49;16.00;53.60
51175;DHT22;37240;50.104;20.010;2023-05-10T19:46:50;16.00;53.70
51175;DHT22;37240;50.104;20.010;2023-05-10T19:51:50;15.80;54.00
51175;DHT22;37240;50.104;20.010;2023-05-10T19:56:51;15.70;54.20
51175;DHT22;37240;50.104;20.010;2023-05-10T20:01:51;15.70;54.40
51175;DHT22;37240;50.104;20.010;2023-05-10T20:06:52;15.50;54.80
51175;DHT22;37240;50.104;20.010;2023-05-10T20:11:52;15.50;54.80
51175;DHT22;37240;50.104;20.010;2023-05-10T20:16:53;15.40;54.90
51175;DHT22;37240;50.104;20.010;2023-05-10T20:21:53;15.30;55.40
51175;DHT22;37240;50.104;20.010;2023-05-10T20:26:54;15.20;55.30
51175;DHT22;37240;50.104;20.010;2023-05-10T20:31:54;15.20;55.60
51175;DHT22;37240;50.104;20.010;2023-05-10T20:36:55;15.10;56.20
51175;DHT22;37240;50.104;20.010;2023-05-10T20:41:56;14.90;56.60
51175;DHT22;37240;50.104;20.010;2023-05-10T20:46:56;14.80;56.90
51175;DHT22;37240;50.104;20.010;2023-05-10T20:51:57;14.80;57.20
51175;DHT22;37240;50.104;20.010;2023-05-10T20:56:58;14.80;57.50
51175;DHT22;37240;50.104;20.010;2023-05-10T21:01:59;14.80;57.70
51175;DHT22;37240;50.104;20.010;2023-05-10T21:06:59;14.80;57.80
51175;DHT22;37240;50.104;20.010;2023-05-10T21:12:00;14.70;58.10
51175;DHT22;37240;50.104;20.010;2023-05-10T21:17:01;14.70;58.30
51175;DHT22;37240;50.104;20.010;2023-05-10T21:22:01;14.70;58.30
51175;DHT22;37240;50.104;20.010;2023-05-10T21:27:02;14.60;58.50
51175;DHT22;37240;50.104;20.010;2023-05-10T21:32:02;14.50;58.60
51175;DHT22;37240;50.104;20.010;2023-05-10T21:37:03;14.50;58.50
51175;DHT22;37240;50.104;20.010;2023-05-10T21:42:03;14.50;58.60
51175;DHT22;37240;50.104;20.010;2023-05-10T21:47:04;14.40;58.90
51175;DHT22;37240;50.104;20.010;2023-05-10T21:52:05;14.40;59.00
51175;DHT22;37240;50.104;20.010;2023-05-10T21:57:05;14.30;59.40
51175;DHT22;37240;50.104;20.010;2023-05-10T22:02:06;14.30;59.40
51175;DHT22;37240;50.104;20.010;2023-05-10T22:07:06;14.30;59.40
51175;DHT22;37240;50.104;20.010;2023-05-10T22:12:07;14.20;60.00
51175;DHT22;37240;50.104;20.010;2023-05-10T22:17:07;14.20;60.10
51175;DHT22;37240;50.104;20.010;2023-05-10T22:22:09;14.20;60.10
51175;DHT22;37240;50.104;20.010;2023-05-10T22:27:10;14.20;60.30
51175;DHT22;37240;50.104;20.010;2023-05-10T22:32:10;14.10;60.50
51175;DHT22;37240;50.104;20.010;2023-05-10T22:37:11;14.10;60.90
51175;DHT22;37240;50.104;20.010;2023-05-10T22:42:11;14.00;61.00
51175;DHT22;37240;50.104;20.010;2023-05-10T22:47:12;13.90;61.40
51175;DHT22;37240;50.104;20.010;2023-05-10T22:52:12;13.90;61.60
51175;DHT22;37240;50.104;20.010;2023-05-10T22:57:13;13.90;62.10
51175;DHT22;37240;50.104;20.010;2023-05-10T23:02:14;13.70;62.40
51175;DHT22;37240;50.104;20.010;2023-05-10T23:07:14;13.70;62.80
51175;DHT22;37240;50.104;20.010;2023-05-10T23:12:15;13.70;63.00
51175;DHT22;37240;50.104;20.010;2023-05-10T23:17:15;13.50;63.50
51175;DHT22;37240;50.104;20.010;2023-05-10T23:22:16;13.40;64.00
51175;DHT22;37240;50.104;20.010;2023-05-10T23:27:16;13.40;64.30
51175;DHT22;37240;50.104;20.010;2023-05-10T23:32:17;13.30;64.80
51175;DHT22;37240;50.104;20.010;2023-05-10T23:37:18;13.20;65.20
51175;DHT22;37240;50.104;20.010;2023-05-10T23:42:18;13.20;65.60
51175;DHT22;37240;50.104;20.010;2023-05-10T23:47:19;13.10;66.00
51175;DHT22;37240;50.104;20.010;2023-05-10T23:52:19;13.20;65.70
51175;DHT22;37240;50.104;20.010;2023-05-10T23:57:20;13.10;66.10
